sensor_id;sensor_type;location;lat;lon;timestamp;temperature;humidity
1614;DHT22;800;48.824;9.346;2023-07-31T00:02:14;23.70;49.00
1614;DHT22;800;48.824;9.346;2023-07-31T00:04:40;23.70;49.00
1614;DHT22;800;48.824;9.346;2023-07-31T00:07:05;23.70;49.00
1614;DHT22;800;48.824;9.346;2023-07-31T00:09:32;23.70;48.90
1614;DHT22;800;48.824;9.346;2023-07-31T00:11:58;23.70;48.90
1614;DHT22;800;48.824;9.346;2023-07-31T00:14:24;23.60;49.10
1614;DHT22;800;48.824;9.346;2023-07-31T00:16:49;23.60;49.20
1614;DHT22;800;48.824;9.346;2023-07-31T00:19:15;23.50;49.40
1614;DHT22;800;48.824;9.346;2023-07-31T00:21:40;23.50;49.60
1614;DHT22;800;48.824;9.346;2023-07-31T00:24:06;23.50;49.40
1614;DHT22;800;48.824;9.346;2023-07-31T00:26:32;23.50;49.40
1614;DHT22;800;48.824;9.346;2023-07-31T00:28:57;23.50;49.40
1614;DHT22;800;48.824;9.346;2023-07-31T00:31:23;23.60;49.50
1614;DHT22;800;48.824;9.346;2023-07-31T00:33:49;23.60;49.60
1614;DHT22;800;48.824;9.346;2023-07-31T00:36:14;23.50;49.50
1614;DHT22;800;48.824;9.346;2023-07-31T00:38:40;23.30;49.60
1614;DHT22;800;48.824;9.346;2023-07-31T00:41:06;23.20;49.80
1614;DHT22;800;48.824;9.346;2023-07-31T00:43:34;22.90;50.60
1614;DHT22;800;48.824;9.346;2023-07-31T00:46:00;22.50;51.30
1614;DHT22;800;48.824;9.346;2023-07-31T00:48:25;22.40;51.60
1614;DHT22;800;48.824;9.346;2023-07-31T00:50:51;22.20;51.60
1614;DHT22;800;48.824;9.346;2023-07-31T00:53:17;22.10;52.10
1614;DHT22;800;48.824;9.346;2023-07-31T00:55:43;21.90;52.30
1614;DHT22;800;48.824;9.346;2023-07-31T00:58:09;21.90;52.30
1614;DHT22;800;48.824;9.346;2023-07-31T01:00:35;22.00;52.20
1614;DHT22;800;48.824;9.346;2023-07-31T01:03:00;22.00;52.10
1614;DHT22;800;48.824;9.346;2023-07-31T01:09:03;22.10;52.10
1614;DHT22;800;48.824;9.346;2023-07-31T01:11:35;22.10;52.30
1614;DHT22;800;48.824;9.346;2023-07-31T01:14:02;22.10;52.40
1614;DHT22;800;48.824;9.346;2023-07-31T01:16:28;22.00;52.60
1614;DHT22;800;48.824;9.346;2023-07-31T01:18:54;22.00;52.70
1614;DHT22;800;48.824;9.346;2023-07-31T01:26:38;21.80;53.50
1614;DHT22;800;48.824;9.346;2023-07-31T01:29:10;21.90;55.00
1614;DHT22;800;48.824;9.346;2023-07-31T01:31:40;22.20;55.80
1614;DHT22;800;48.824;9.346;2023-07-31T01:34:09;22.50;56.30
1614;DHT22;800;48.824;9.346;2023-07-31T01:36:35;22.70;55.40
1614;DHT22;800;48.824;9.346;2023-07-31T01:39:02;22.90;54.90
1614;DHT22;800;48.824;9.346;2023-07-31T01:41:28;23.10;54.40
1614;DHT22;800;48.824;9.346;2023-07-31T01:43:54;23.20;53.70
1614;DHT22;800;48.824;9.346;2023-07-31T01:46:19;23.30;53.30
1614;DHT22;800;48.824;9.346;2023-07-31T01:48:45;23.30;52.90
1614;DHT22;800;48.824;9.346;2023-07-31T01:51:10;23.10;52.50
1614;DHT22;800;48.824;9.346;2023-07-31T01:53:36;23.10;53.70
1614;DHT22;800;48.824;9.346;2023-07-31T01:56:01;23.10;52.70
1614;DHT22;800;48.824;9.346;2023-07-31T01:58:27;23.10;53.40
1614;DHT22;800;48.824;9.346;2023-07-31T02:00:53;23.20;53.00
1614;DHT22;800;48.824;9.346;2023-07-31T02:03:18;23.30;53.00
1614;DHT22;800;48.824;9.346;2023-07-31T02:05:47;23.50;52.90
1614;DHT22;800;48.824;9.346;2023-07-31T02:08:13;23.60;52.70
1614;DHT22;800;48.824;9.346;2023-07-31T02:10:39;23.70;52.40
1614;DHT22;800;48.824;9.346;2023-07-31T02:13:05;23.70;52.50
1614;DHT22;800;48.824;9.346;2023-07-31T02:20:21;23.90;51.80
1614;DHT22;800;48.824;9.346;2023-07-31T02:22:46;23.90;51.90
1614;DHT22;800;48.824;9.346;2023-07-31T02:25:12;24.00;51.80
1614;DHT22;800;48.824;9.346;2023-07-31T02:27:37;24.00;51.60
1614;DHT22;800;48.824;9.346;2023-07-31T02:30:03;24.00;51.70
1614;DHT22;800;48.824;9.346;2023-07-31T02:32:29;24.10;51.70
1614;DHT22;800;48.824;9.346;2023-07-31T02:34:54;24.10;51.50
1614;DHT22;800;48.824;9.346;2023-07-31T02:37:20;24.10;51.40
1614;DHT22;800;48.824;9.346;2023-07-31T02:39:45;24.10;51.40
1614;DHT22;800;48.824;9.346;2023-07-31T02:42:12;24.20;51.40
1614;DHT22;800;48.824;9.346;2023-07-31T02:44:37;24.20;51.30
1614;DHT22;800;48.824;9.346;2023-07-31T02:47:03;24.20;51.20
1614;DHT22;800;48.824;9.346;2023-07-31T02:49:29;24.20;51.10
1614;DHT22;800;48.824;9.346;2023-07-31T02:51:54;24.30;50.90
1614;DHT22;800;48.824;9.346;2023-07-31T02:54:20;24.30;50.80
1614;DHT22;800;48.824;9.346;2023-07-31T02:56:47;24.20;50.40
1614;DHT22;800;48.824;9.346;2023-07-31T02:59:13;24.10;50.40
1614;DHT22;800;48.824;9.346;2023-07-31T03:01:38;24.00;50.60
1614;DHT22;800;48.824;9.346;2023-07-31T03:04:04;24.00;50.80
1614;DHT22;800;48.824;9.346;2023-07-31T03:06:30;24.00;50.70
1614;DHT22;800;48.824;9.346;2023-07-31T03:08:56;24.00;50.60
1614;DHT22;800;48.824;9.346;2023-07-31T03:11:21;24.00;50.30
1614;DHT22;800;48.824;9.346;2023-07-31T03:13:47;23.90;50.50
1614;DHT22;800;48.824;9.346;2023-07-31T03:16:13;23.90;50.30
1614;DHT22;800;48.824;9.346;2023-07-31T03:18:38;23.80;50.30
1614;DHT22;800;48.824;9.346;2023-07-31T03:21:04;23.70;50.80
1614;DHT22;800;48.824;9.346;2023-07-31T03:23:30;23.60;51.00
1614;DHT22;800;48.824;9.346;2023-07-31T03:26:00;23.60;51.10
1614;DHT22;800;48.824;9.346;2023-07-31T03:28:26;23.60;50.80
1614;DHT22;800;48.824;9.346;2023-07-31T03:30:52;23.50;50.10
1614;DHT22;800;48.824;9.346;2023-07-31T03:33:18;23.50;51.20
1614;DHT22;800;48.824;9.346;2023-07-31T03:35:43;23.60;51.30
1614;DHT22;800;48.824;9.346;2023-07-31T03:38:09;23.70;51.50
1614;DHT22;800;48.824;9.346;2023-07-31T03:40:35;23.80;51.20
1614;DHT22;800;48.824;9.346;2023-07-31T03:43:00;23.50;50.40
1614;DHT22;800;48.824;9.346;2023-07-31T03:45:26;23.60;51.30
1614;DHT22;800;48.824;9.346;2023-07-31T03:47:51;23.60;50.80
1614;DHT22;800;48.824;9.346;2023-07-31T03:50:17;23.50;49.90
1614;DHT22;800;48.824;9.346;2023-07-31T03:52:43;23.40;51.20
1614;DHT22;800;48.824;9.346;2023-07-31T03:55:08;23.50;51.40
1614;DHT22;800;48.824;9.346;2023-07-31T03:57:34;23.50;49.90
1614;DHT22;800;48.824;9.346;2023-07-31T03:59:59;23.50;50.60
1614;DHT22;800;48.824;9.346;2023-07-31T04:02:25;23.40;50.60
1614;DHT22;800;48.824;9.346;2023-07-31T04:04:50;23.40;49.60
1614;DHT22;800;48.824;9.346;2023-07-31T04:07:16;23.10;49.10
1614;DHT22;800;48.824;9.346;2023-07-31T04:09:42;22.60;50.20
1614;DHT22;800;48.824;9.346;2023-07-31T04:12:07;22.20;50.90
1614;DHT22;800;48.824;9.346;2023-07-31T04:14:33;21.80;51.80
1614;DHT22;800;48.824;9.346;2023-07-31T04:16:58;21.70;52.10
1614;DHT22;800;48.824;9.346;2023-07-31T04:19:24;21.30;52.90
1614;DHT22;800;48.824;9.346;2023-07-31T04:21:50;21.10;53.70
1614;DHT22;800;48.824;9.346;2023-07-31T04:24:15;21.00;54.20
1614;DHT22;800;48.824;9.346;2023-07-31T04:26:41;21.00;54.20
1614;DHT22;800;48.824;9.346;2023-07-31T04:29:09;21.10;53.80
1614;DHT22;800;48.824;9.346;2023-07-31T04:31:42;21.10;54.20
1614;DHT22;800;48.824;9.346;2023-07-31T04:34:07;21.00;54.30
1614;DHT22;800;48.824;9.346;2023-07-31T04:36:34;20.90;54.60
1614;DHT22;800;48.824;9.346;2023-07-31T04:39:00;21.00;54.70
1614;DHT22;800;48.824;9.346;2023-07-31T04:41:25;21.10;54.50
1614;DHT22;800;48.824;9.346;2023-07-31T04:43:51;21.20;54.40
1614;DHT22;800;48.824;9.346;2023-07-31T04:46:17;21.20;54.10
1614;DHT22;800;48.824;9.346;2023-07-31T04:48:42;21.40;54.10
1614;DHT22;800;48.824;9.346;2023-07-31T04:51:08;21.30;53.90
1614;DHT22;800;48.824;9.346;2023-07-31T04:53:35;21.40;54.00
1614;DHT22;800;48.824;9.346;2023-07-31T04:56:00;21.40;53.50
1614;DHT22;800;48.824;9.346;2023-07-31T04:58:26;21.40;53.50
1614;DHT22;800;48.824;9.346;2023-07-31T05:00:52;21.50;53.50
1614;DHT22;800;48.824;9.346;2023-07-31T05:03:17;21.60;53.30
1614;DHT22;800;48.824;9.346;2023-07-31T05:05:43;21.60;53.20
1614;DHT22;800;48.824;9.346;2023-07-31T05:08:08;21.60;53.40
1614;DHT22;800;48.824;9.346;2023-07-31T05:10:34;21.70;53.50
1614;DHT22;800;48.824;9.346;2023-07-31T05:13:00;21.80;53.50
1614;DHT22;800;48.824;9.346;2023-07-31T05:15:26;21.80;53.30
1614;DHT22;800;48.824;9.346;2023-07-31T05:17:51;21.70;53.40
1614;DHT22;800;48.824;9.346;2023-07-31T05:20:17;21.70;55.40
1614;DHT22;800;48.824;9.346;2023-07-31T05:22:43;21.70;54.50
1614;DHT22;800;48.824;9.346;2023-07-31T05:25:08;21.80;54.50
1614;DHT22;800;48.824;9.346;2023-07-31T05:27:34;22.10;54.40
1614;DHT22;800;48.824;9.346;2023-07-31T05:30:00;22.30;53.80
1614;DHT22;800;48.824;9.346;2023-07-31T05:32:26;22.40;52.90
1614;DHT22;800;48.824;9.346;2023-07-31T05:34:52;22.60;53.00
1614;DHT22;800;48.824;9.346;2023-07-31T05:37:18;22.70;52.50
1614;DHT22;800;48.824;9.346;2023-07-31T05:39:43;22.70;52.10
1614;DHT22;800;48.824;9.346;2023-07-31T05:42:09;22.50;52.10
1614;DHT22;800;48.824;9.346;2023-07-31T05:44:35;22.40;52.40
1614;DHT22;800;48.824;9.346;2023-07-31T05:47:00;22.30;52.50
1614;DHT22;800;48.824;9.346;2023-07-31T05:49:26;22.30;52.40
1614;DHT22;800;48.824;9.346;2023-07-31T05:51:51;22.30;52.30
1614;DHT22;800;48.824;9.346;2023-07-31T05:54:17;22.30;52.30
1614;DHT22;800;48.824;9.346;2023-07-31T05:56:43;22.00;52.60
1614;DHT22;800;48.824;9.346;2023-07-31T05:59:10;22.10;52.90
1614;DHT22;800;48.824;9.346;2023-07-31T06:01:35;22.10;52.80
1614;DHT22;800;48.824;9.346;2023-07-31T06:04:01;22.00;52.90
1614;DHT22;800;48.824;9.346;2023-07-31T06:06:28;22.10;53.20
1614;DHT22;800;48.824;9.346;2023-07-31T06:08:53;22.10;53.10
1614;DHT22;800;48.824;9.346;2023-07-31T06:11:20;22.30;52.60
1614;DHT22;800;48.824;9.346;2023-07-31T06:13:46;22.10;52.70
1614;DHT22;800;48.824;9.346;2023-07-31T06:16:13;22.10;52.80
1614;DHT22;800;48.824;9.346;2023-07-31T06:18:39;22.00;53.10
1614;DHT22;800;48.824;9.346;2023-07-31T06:21:05;21.90;53.10
1614;DHT22;800;48.824;9.346;2023-07-31T06:23:31;21.90;52.90
1614;DHT22;800;48.824;9.346;2023-07-31T06:25:56;22.10;53.00
1614;DHT22;800;48.824;9.346;2023-07-31T06:28:30;22.20;52.60
1614;DHT22;800;48.824;9.346;2023-07-31T06:30:59;22.30;52.70
1614;DHT22;800;48.824;9.346;2023-07-31T06:33:26;22.30;52.70
1614;DHT22;800;48.824;9.346;2023-07-31T06:35:51;22.40;52.80
1614;DHT22;800;48.824;9.346;2023-07-31T06:38:23;22.40;52.70
1614;DHT22;800;48.824;9.346;2023-07-31T06:40:49;22.30;53.40
1614;DHT22;800;48.824;9.346;2023-07-31T06:43:15;22.30;53.40
1614;DHT22;800;48.824;9.346;2023-07-31T06:45:40;22.30;53.40
1614;DHT22;800;48.824;9.346;2023-07-31T06:48:06;22.30;53.60
1614;DHT22;800;48.824;9.346;2023-07-31T06:50:32;22.30;53.80
1614;DHT22;800;48.824;9.346;2023-07-31T06:52:58;22.40;53.20
1614;DHT22;800;48.824;9.346;2023-07-31T06:55:24;22.60;52.70
1614;DHT22;800;48.824;9.346;2023-07-31T06:57:52;22.60;52.60
1614;DHT22;800;48.824;9.346;2023-07-31T07:00:18;22.60;52.00
1614;DHT22;800;48.824;9.346;2023-07-31T07:02:44;22.80;52.60
1614;DHT22;800;48.824;9.346;2023-07-31T07:05:12;22.90;52.00
1614;DHT22;800;48.824;9.346;2023-07-31T07:07:37;23.00;51.60
1614;DHT22;800;48.824;9.346;2023-07-31T07:10:03;23.20;51.60
1614;DHT22;800;48.824;9.346;2023-07-31T07:12:30;23.40;50.90
1614;DHT22;800;48.824;9.346;2023-07-31T07:14:56;23.40;50.70
1614;DHT22;800;48.824;9.346;2023-07-31T07:17:23;23.60;50.80
1614;DHT22;800;48.824;9.346;2023-07-31T07:19:49;23.80;50.20
1614;DHT22;800;48.824;9.346;2023-07-31T07:22:14;23.80;50.00
1614;DHT22;800;48.824;9.346;2023-07-31T07:24:40;23.70;49.40
1614;DHT22;800;48.824;9.346;2023-07-31T07:27:06;23.90;49.80
1614;DHT22;800;48.824;9.346;2023-07-31T07:29:33;24.10;49.30
1614;DHT22;800;48.824;9.346;2023-07-31T07:31:59;24.20;48.60
1614;DHT22;800;48.824;9.346;2023-07-31T07:34:26;24.20;48.60
1614;DHT22;800;48.824;9.346;2023-07-31T07:36:52;24.30;48.10
1614;DHT22;800;48.824;9.346;2023-07-31T07:39:18;24.00;48.20
1614;DHT22;800;48.824;9.346;2023-07-31T07:41:44;24.10;48.70
1614;DHT22;800;48.824;9.346;2023-07-31T07:44:09;24.20;48.60
1614;DHT22;800;48.824;9.346;2023-07-31T07:46:35;24.20;48.20
1614;DHT22;800;48.824;9.346;2023-07-31T07:49:01;24.10;48.10
1614;DHT22;800;48.824;9.346;2023-07-31T07:51:26;24.30;48.40
1614;DHT22;800;48.824;9.346;2023-07-31T07:53:52;24.30;47.80
1614;DHT22;800;48.824;9.346;2023-07-31T07:56:17;24.30;47.90
1614;DHT22;800;48.824;9.346;2023-07-31T07:58:43;24.40;48.20
1614;DHT22;800;48.824;9.346;2023-07-31T08:01:09;24.30;48.20
1614;DHT22;800;48.824;9.346;2023-07-31T08:03:34;24.30;48.10
1614;DHT22;800;48.824;9.346;2023-07-31T08:06:00;24.20;48.30
1614;DHT22;800;48.824;9.346;2023-07-31T08:08:27;24.40;48.80
1614;DHT22;800;48.824;9.346;2023-07-31T08:10:52;24.50;48.30
1614;DHT22;800;48.824;9.346;2023-07-31T08:13:18;24.50;48.70
1614;DHT22;800;48.824;9.346;2023-07-31T08:15:44;24.60;48.10
1614;DHT22;800;48.824;9.346;2023-07-31T08:18:10;24.70;47.80
1614;DHT22;800;48.824;9.346;2023-07-31T08:20:37;24.80;47.20
1614;DHT22;800;48.824;9.346;2023-07-31T08:23:02;24.80;46.70
1614;DHT22;800;48.824;9.346;2023-07-31T08:25:28;24.60;46.00
1614;DHT22;800;48.824;9.346;2023-07-31T08:27:54;24.40;45.60
1614;DHT22;800;48.824;9.346;2023-07-31T08:30:20;24.50;46.80
1614;DHT22;800;48.824;9.346;2023-07-31T08:32:46;24.50;46.90
1614;DHT22;800;48.824;9.346;2023-07-31T08:35:12;24.40;46.10
1614;DHT22;800;48.824;9.346;2023-07-31T08:37:38;24.30;46.70
1614;DHT22;800;48.824;9.346;2023-07-31T08:40:05;24.40;47.00
1614;DHT22;800;48.824;9.346;2023-07-31T08:42:31;24.70;46.90
1614;DHT22;800;48.824;9.346;2023-07-31T08:44:57;25.20;45.60
1614;DHT22;800;48.824;9.346;2023-07-31T08:47:26;25.40;45.00
1614;DHT22;800;48.824;9.346;2023-07-31T08:49:52;25.70;45.40
1614;DHT22;800;48.824;9.346;2023-07-31T08:52:19;26.00;45.40
1614;DHT22;800;48.824;9.346;2023-07-31T08:54:45;26.40;45.00
1614;DHT22;800;48.824;9.346;2023-07-31T08:57:11;26.40;42.80
1614;DHT22;800;48.824;9.346;2023-07-31T08:59:38;26.30;43.80
1614;DHT22;800;48.824;9.346;2023-07-31T09:02:08;26.50;43.60
1614;DHT22;800;48.824;9.346;2023-07-31T09:04:34;26.60;42.80
1614;DHT22;800;48.824;9.346;2023-07-31T09:07:01;26.60;42.30
1614;DHT22;800;48.824;9.346;2023-07-31T09:09:30;26.70;43.10
1614;DHT22;800;48.824;9.346;2023-07-31T09:11:57;26.80;43.20
1614;DHT22;800;48.824;9.346;2023-07-31T09:14:25;26.80;42.90
1614;DHT22;800;48.824;9.346;2023-07-31T09:16:52;26.70;43.00
1614;DHT22;800;48.824;9.346;2023-07-31T09:19:34;26.60;42.00
1614;DHT22;800;48.824;9.346;2023-07-31T09:22:02;26.80;42.40
1614;DHT22;800;48.824;9.346;2023-07-31T09:24:29;26.70;42.30
1614;DHT22;800;48.824;9.346;2023-07-31T09:26:56;26.70;42.90
1614;DHT22;800;48.824;9.346;2023-07-31T09:29:22;26.70;42.40
1614;DHT22;800;48.824;9.346;2023-07-31T09:31:48;26.90;42.40
1614;DHT22;800;48.824;9.346;2023-07-31T09:34:14;27.00;41.60
1614;DHT22;800;48.824;9.346;2023-07-31T09:36:41;26.80;42.20
1614;DHT22;800;48.824;9.346;2023-07-31T09:39:09;26.60;42.90
1614;DHT22;800;48.824;9.346;2023-07-31T09:41:39;26.50;42.30
1614;DHT22;800;48.824;9.346;2023-07-31T09:44:05;26.30;43.50
1614;DHT22;800;48.824;9.346;2023-07-31T09:46:31;26.30;43.00
1614;DHT22;800;48.824;9.346;2023-07-31T09:49:09;26.50;43.10
1614;DHT22;800;48.824;9.346;2023-07-31T09:51:42;26.50;43.10
1614;DHT22;800;48.824;9.346;2023-07-31T09:54:12;26.20;43.20
1614;DHT22;800;48.824;9.346;2023-07-31T09:56:45;26.20;43.90
1614;DHT22;800;48.824;9.346;2023-07-31T09:59:13;26.20;43.70
1614;DHT22;800;48.824;9.346;2023-07-31T10:01:40;26.40;43.50
1614;DHT22;800;48.824;9.346;2023-07-31T10:04:08;26.40;44.30
1614;DHT22;800;48.824;9.346;2023-07-31T10:06:36;26.20;43.20
1614;DHT22;800;48.824;9.346;2023-07-31T10:09:03;26.20;43.50
1614;DHT22;800;48.824;9.346;2023-07-31T10:11:38;26.20;43.60
1614;DHT22;800;48.824;9.346;2023-07-31T10:14:05;26.50;43.60
1614;DHT22;800;48.824;9.346;2023-07-31T10:16:32;26.40;43.30
1614;DHT22;800;48.824;9.346;2023-07-31T10:18:59;26.60;43.00
1614;DHT22;800;48.824;9.346;2023-07-31T10:21:25;26.40;42.90
1614;DHT22;800;48.824;9.346;2023-07-31T10:23:51;26.10;43.40
1614;DHT22;800;48.824;9.346;2023-07-31T10:26:18;26.10;43.70
1614;DHT22;800;48.824;9.346;2023-07-31T10:28:45;26.10;44.20
1614;DHT22;800;48.824;9.346;2023-07-31T10:31:11;26.10;43.90
1614;DHT22;800;48.824;9.346;2023-07-31T10:33:37;26.30;44.10
1614;DHT22;800;48.824;9.346;2023-07-31T10:36:20;26.50;43.60
1614;DHT22;800;48.824;9.346;2023-07-31T10:38:48;26.70;42.70
1614;DHT22;800;48.824;9.346;2023-07-31T10:41:14;26.60;43.30
1614;DHT22;800;48.824;9.346;2023-07-31T10:43:40;26.50;43.10
1614;DHT22;800;48.824;9.346;2023-07-31T10:46:12;26.40;43.20
1614;DHT22;800;48.824;9.346;2023-07-31T10:48:39;26.60;43.50
1614;DHT22;800;48.824;9.346;2023-07-31T10:51:11;26.70;43.50
1614;DHT22;800;48.824;9.346;2023-07-31T10:53:41;26.80;42.60
1614;DHT22;800;48.824;9.346;2023-07-31T10:56:09;26.90;42.30
1614;DHT22;800;48.824;9.346;2023-07-31T10:58:37;26.60;42.70
1614;DHT22;800;48.824;9.346;2023-07-31T11:01:04;26.40;43.00
1614;DHT22;800;48.824;9.346;2023-07-31T11:06:08;26.70;43.50
1614;DHT22;800;48.824;9.346;2023-07-31T11:08:35;26.80;42.50
1614;DHT22;800;48.824;9.346;2023-07-31T11:13:27;26.80;42.70
1614;DHT22;800;48.824;9.346;2023-07-31T11:15:53;26.90;43.10
1614;DHT22;800;48.824;9.346;2023-07-31T11:18:19;27.20;42.40
1614;DHT22;800;48.824;9.346;2023-07-31T11:20:44;27.20;42.10
1614;DHT22;800;48.824;9.346;2023-07-31T11:23:11;27.30;41.20
1614;DHT22;800;48.824;9.346;2023-07-31T11:25:38;27.50;41.40
1614;DHT22;800;48.824;9.346;2023-07-31T11:28:10;27.80;42.00
1614;DHT22;800;48.824;9.346;2023-07-31T11:30:37;28.00;41.50
1614;DHT22;800;48.824;9.346;2023-07-31T11:33:05;27.80;40.80
1614;DHT22;800;48.824;9.346;2023-07-31T11:35:32;27.80;40.90
1614;DHT22;800;48.824;9.346;2023-07-31T11:37:58;28.00;41.40
1614;DHT22;800;48.824;9.346;2023-07-31T11:40:24;28.20;40.60
1614;DHT22;800;48.824;9.346;2023-07-31T11:42:58;28.30;40.40
1614;DHT22;800;48.824;9.346;2023-07-31T11:45:27;28.30;40.00
1614;DHT22;800;48.824;9.346;2023-07-31T11:47:56;28.20;40.00
1614;DHT22;800;48.824;9.346;2023-07-31T11:50:23;28.10;40.60
1614;DHT22;800;48.824;9.346;2023-07-31T11:52:54;28.10;40.10
1614;DHT22;800;48.824;9.346;2023-07-31T11:55:23;27.80;40.40
1614;DHT22;800;48.824;9.346;2023-07-31T11:57:49;27.60;41.00
1614;DHT22;800;48.824;9.346;2023-07-31T12:00:15;27.40;40.90
1614;DHT22;800;48.824;9.346;2023-07-31T12:02:42;27.20;41.80
1614;DHT22;800;48.824;9.346;2023-07-31T12:05:12;27.20;41.60
1614;DHT22;800;48.824;9.346;2023-07-31T12:07:51;27.20;42.10
1614;DHT22;800;48.824;9.346;2023-07-31T12:10:30;27.30;42.20
1614;DHT22;800;48.824;9.346;2023-07-31T12:13:03;27.20;41.90
1614;DHT22;800;48.824;9.346;2023-07-31T12:15:42;27.00;42.00
1614;DHT22;800;48.824;9.346;2023-07-31T12:18:10;27.10;42.60
1614;DHT22;800;48.824;9.346;2023-07-31T12:20:44;27.20;42.40
1614;DHT22;800;48.824;9.346;2023-07-31T12:23:18;26.90;42.30
1614;DHT22;800;48.824;9.346;2023-07-31T12:25:44;27.00;42.70
1614;DHT22;800;48.824;9.346;2023-07-31T12:28:10;27.10;42.50
1614;DHT22;800;48.824;9.346;2023-07-31T12:30:40;27.10;41.90
1614;DHT22;800;48.824;9.346;2023-07-31T12:33:11;27.20;41.90
1614;DHT22;800;48.824;9.346;2023-07-31T12:35:40;27.00;42.40
1614;DHT22;800;48.824;9.346;2023-07-31T12:38:09;26.80;43.00
1614;DHT22;800;48.824;9.346;2023-07-31T12:40:37;26.80;42.60
1614;DHT22;800;48.824;9.346;2023-07-31T12:43:03;26.80;43.30
1614;DHT22;800;48.824;9.346;2023-07-31T12:45:30;27.00;42.90
1614;DHT22;800;48.824;9.346;2023-07-31T12:47:56;27.10;42.60
1614;DHT22;800;48.824;9.346;2023-07-31T12:50:22;27.20;42.70
1614;DHT22;800;48.824;9.346;2023-07-31T12:52:49;27.10;43.20
1614;DHT22;800;48.824;9.346;2023-07-31T12:55:14;27.10;42.70
1614;DHT22;800;48.824;9.346;2023-07-31T12:57:40;27.30;43.00
1614;DHT22;800;48.824;9.346;2023-07-31T13:00:23;27.20;43.30
1614;DHT22;800;48.824;9.346;2023-07-31T13:02:48;27.10;43.00
1614;DHT22;800;48.824;9.346;2023-07-31T13:05:14;26.90;43.00
1614;DHT22;800;48.824;9.346;2023-07-31T13:07:40;26.80;43.30
1614;DHT22;800;48.824;9.346;2023-07-31T13:10:07;26.60;42.90
1614;DHT22;800;48.824;9.346;2023-07-31T13:12:33;26.50;43.60
1614;DHT22;800;48.824;9.346;2023-07-31T13:14:59;26.50;43.30
1614;DHT22;800;48.824;9.346;2023-07-31T13:17:24;26.50;43.70
1614;DHT22;800;48.824;9.346;2023-07-31T13:19:50;26.70;43.80
1614;DHT22;800;48.824;9.346;2023-07-31T13:22:16;26.70;43.60
1614;DHT22;800;48.824;9.346;2023-07-31T13:24:41;26.90;43.20
1614;DHT22;800;48.824;9.346;2023-07-31T13:27:07;26.80;42.90
1614;DHT22;800;48.824;9.346;2023-07-31T13:29:32;26.70;42.60
1614;DHT22;800;48.824;9.346;2023-07-31T13:31:58;26.70;43.00
1614;DHT22;800;48.824;9.346;2023-07-31T13:34:24;26.70;43.40
1614;DHT22;800;48.824;9.346;2023-07-31T13:36:49;27.00;43.40
1614;DHT22;800;48.824;9.346;2023-07-31T13:39:15;27.10;43.20
1614;DHT22;800;48.824;9.346;2023-07-31T13:41:44;27.30;42.80
1614;DHT22;800;48.824;9.346;2023-07-31T13:44:09;27.30;42.60
1614;DHT22;800;48.824;9.346;2023-07-31T13:46:35;27.30;42.60
1614;DHT22;800;48.824;9.346;2023-07-31T13:49:00;27.30;42.90
1614;DHT22;800;48.824;9.346;2023-07-31T13:51:27;27.40;41.60
1614;DHT22;800;48.824;9.346;2023-07-31T13:53:53;27.40;42.30
1614;DHT22;800;48.824;9.346;2023-07-31T13:56:19;27.60;42.00
1614;DHT22;800;48.824;9.346;2023-07-31T13:58:45;27.90;41.50
1614;DHT22;800;48.824;9.346;2023-07-31T14:01:11;28.00;41.60
1614;DHT22;800;48.824;9.346;2023-07-31T14:03:36;27.90;40.90
1614;DHT22;800;48.824;9.346;2023-07-31T14:06:02;28.00;41.30
1614;DHT22;800;48.824;9.346;2023-07-31T14:08:28;27.80;41.80
1614;DHT22;800;48.824;9.346;2023-07-31T14:10:55;27.70;41.50
1614;DHT22;800;48.824;9.346;2023-07-31T14:13:20;27.90;41.60
1614;DHT22;800;48.824;9.346;2023-07-31T14:15:46;28.00;42.00
1614;DHT22;800;48.824;9.346;2023-07-31T14:18:11;28.10;41.80
1614;DHT22;800;48.824;9.346;2023-07-31T14:20:37;28.20;41.00
1614;DHT22;800;48.824;9.346;2023-07-31T14:23:03;28.00;41.10
1614;DHT22;800;48.824;9.346;2023-07-31T14:25:28;27.90;41.40
1614;DHT22;800;48.824;9.346;2023-07-31T14:27:54;27.70;41.80
1614;DHT22;800;48.824;9.346;2023-07-31T14:30:20;27.90;42.00
1614;DHT22;800;48.824;9.346;2023-07-31T14:32:46;28.00;41.40
1614;DHT22;800;48.824;9.346;2023-07-31T14:35:12;28.10;41.60
1614;DHT22;800;48.824;9.346;2023-07-31T14:37:42;28.00;41.40
1614;DHT22;800;48.824;9.346;2023-07-31T14:40:10;28.10;41.80
1614;DHT22;800;48.824;9.346;2023-07-31T14:42:36;28.10;41.80
1614;DHT22;800;48.824;9.346;2023-07-31T14:45:03;28.00;42.20
1614;DHT22;800;48.824;9.346;2023-07-31T14:47:29;28.00;41.50
1614;DHT22;800;48.824;9.346;2023-07-31T14:53:18;28.10;41.70
1614;DHT22;800;48.824;9.346;2023-07-31T14:55:43;27.80;42.10
1614;DHT22;800;48.824;9.346;2023-07-31T14:58:09;27.70;42.50
1614;DHT22;800;48.824;9.346;2023-07-31T15:00:36;27.80;42.20
1614;DHT22;800;48.824;9.346;2023-07-31T15:03:02;27.80;42.40
1614;DHT22;800;48.824;9.346;2023-07-31T15:05:28;28.00;42.40
1614;DHT22;800;48.824;9.346;2023-07-31T15:07:53;27.90;42.60
1614;DHT22;800;48.824;9.346;2023-07-31T15:10:19;28.00;42.30
1614;DHT22;800;48.824;9.346;2023-07-31T15:12:45;28.10;42.40
1614;DHT22;800;48.824;9.346;2023-07-31T15:15:10;28.20;42.80
1614;DHT22;800;48.824;9.346;2023-07-31T15:17:36;28.40;42.60
1614;DHT22;800;48.824;9.346;2023-07-31T15:20:01;28.50;42.30
1614;DHT22;800;48.824;9.346;2023-07-31T15:22:27;28.50;42.10
1614;DHT22;800;48.824;9.346;2023-07-31T15:24:53;28.70;42.30
1614;DHT22;800;48.824;9.346;2023-07-31T15:27:18;28.60;42.20
1614;DHT22;800;48.824;9.346;2023-07-31T15:29:44;28.60;42.00
1614;DHT22;800;48.824;9.346;2023-07-31T15:32:09;28.50;42.70
1614;DHT22;800;48.824;9.346;2023-07-31T15:34:35;28.60;42.20
1614;DHT22;800;48.824;9.346;2023-07-31T15:37:01;28.70;41.40
1614;DHT22;800;48.824;9.346;2023-07-31T15:39:26;28.80;41.00
1614;DHT22;800;48.824;9.346;2023-07-31T15:41:52;29.00;41.20
1614;DHT22;800;48.824;9.346;2023-07-31T15:44:18;28.90;40.90
1614;DHT22;800;48.824;9.346;2023-07-31T15:46:43;28.50;40.60
1614;DHT22;800;48.824;9.346;2023-07-31T15:49:10;28.20;41.00
1614;DHT22;800;48.824;9.346;2023-07-31T15:51:35;27.90;41.70
1614;DHT22;800;48.824;9.346;2023-07-31T15:54:01;28.00;41.50
1614;DHT22;800;48.824;9.346;2023-07-31T15:56:26;28.20;41.80
1614;DHT22;800;48.824;9.346;2023-07-31T15:58:52;28.40;41.40
1614;DHT22;800;48.824;9.346;2023-07-31T16:01:20;28.60;40.80
1614;DHT22;800;48.824;9.346;2023-07-31T16:03:45;28.60;40.40
1614;DHT22;800;48.824;9.346;2023-07-31T16:06:11;28.60;40.40
1614;DHT22;800;48.824;9.346;2023-07-31T16:08:37;28.60;40.20
1614;DHT22;800;48.824;9.346;2023-07-31T16:11:07;28.60;40.40
1614;DHT22;800;48.824;9.346;2023-07-31T16:13:33;28.80;40.30
1614;DHT22;800;48.824;9.346;2023-07-31T16:15:59;28.80;40.00
1614;DHT22;800;48.824;9.346;2023-07-31T16:18:24;28.80;40.30
1614;DHT22;800;48.824;9.346;2023-07-31T16:20:50;28.90;40.40
1614;DHT22;800;48.824;9.346;2023-07-31T16:23:16;28.80;39.80
1614;DHT22;800;48.824;9.346;2023-07-31T16:25:41;28.80;40.20
1614;DHT22;800;48.824;9.346;2023-07-31T16:28:07;28.90;39.80
1614;DHT22;800;48.824;9.346;2023-07-31T16:30:32;29.20;40.20
1614;DHT22;800;48.824;9.346;2023-07-31T16:32:58;29.50;39.70
1614;DHT22;800;48.824;9.346;2023-07-31T16:35:24;29.60;39.20